Terminal Aerodrome Forecast
Issued by NWS

Home | Current Version | Previous Version | Text Only | Print | Product List | Glossary On
Versions: 1 2 3 4 5 6 7 8 9 10 11 12 13 14 15 16 17
160
FTAK31 PAJN 231720
TAFAWG
TAF
PAWG 231720Z 2318/2418 11012G20KT 6SM -RA BKN030 OVC050
      WS020/15040KT
      TEMPO 2318/2322 5SM -RA BR BKN025 OVC035
     FM240300 14010KT 5SM -RA BR OVC020
     FM240800 13008KT P6SM -RA OVC020
      AMD LTD TO CLD VIS AND WIND 2406/2415=

USA.gov is the U.S. government's official web portal to all federal, state and local government web resources and services.